createdAt,value
2023-05-18T11:47:43.280Z,51.41
2023-05-18T11:53:17.732Z,51.16
2023-05-18T12:06:44.355Z,51.97
2023-05-18T12:09:11.079Z,50.20
2023-05-18T12:11:37.757Z,51.71
2023-05-18T12:14:04.827Z,51.80
2023-05-18T12:16:31.505Z,49.50
2023-05-18T12:18:58.512Z,53.50
2023-05-18T12:21:25.259Z,52.93
2023-05-18T12:32:18.806Z,51.61
2023-05-18T12:34:45.652Z,50.82
2023-05-18T12:37:12.765Z,50.02
2023-05-18T12:42:35.654Z,53.24
2023-05-18T12:45:05.064Z,50.23
2023-05-18T12:47:34.114Z,49.69
2023-05-18T12:55:39.533Z,51.90
2023-05-18T13:20:41.837Z,50.62
2023-05-18T13:26:08.632Z,49.57
2023-05-18T13:31:24.052Z,52.42
2023-05-18T13:33:50.912Z,50.28
2023-05-18T13:36:18.302Z,50.09
2023-05-18T13:38:44.985Z,51.30
2023-05-18T13:44:24.440Z,51.85
2023-05-18T13:46:51.542Z,52.06
2023-05-18T13:49:18.178Z,50.98
2023-05-18T13:51:44.975Z,49.41
2023-05-18T13:54:12.318Z,50.49
2023-05-18T14:31:51.130Z,51.59
2023-05-18T14:34:18.164Z,49.82
2023-05-18T14:36:45.043Z,51.25
2023-05-18T14:39:11.679Z,50.05
2023-05-18T14:41:42.045Z,49.12
2023-05-18T14:46:47.366Z,50.36
2023-05-18T14:49:14.037Z,50.98
2023-05-18T14:51:40.783Z,49.91
2023-05-18T14:54:07.434Z,50.55
2023-05-18T14:56:34.028Z,51.56
2023-05-18T14:59:00.712Z,51.89
2023-05-18T15:01:27.398Z,49.19
2023-05-18T15:03:54.233Z,48.77
2023-05-18T15:06:21.224Z,49.86
2023-05-18T15:08:48.274Z,49.58
2023-05-18T15:11:14.944Z,50.30
2023-05-18T15:13:42.512Z,51.36
2023-05-18T15:16:09.243Z,50.32
2023-05-18T15:18:35.930Z,50.52
2023-05-18T15:21:02.546Z,50.30
2023-05-18T15:23:29.232Z,47.98
2023-05-18T15:25:56.119Z,47.53
2023-05-18T15:28:22.700Z,47.90
2023-05-18T15:30:49.472Z,49.32
2023-05-18T15:33:16.184Z,49.29
2023-05-18T15:35:42.890Z,50.85
2023-05-18T15:38:09.502Z,48.90
2023-05-18T15:40:36.635Z,49.19
2023-05-18T15:43:07.908Z,48.51
2023-05-18T15:45:34.646Z,49.03
2023-05-18T15:48:01.343Z,49.68
2023-05-18T15:50:28.431Z,50.35
2023-05-18T15:52:55.139Z,47.81
2023-05-18T15:55:21.756Z,48.63
2023-05-18T15:57:48.366Z,49.25
2023-05-18T16:00:15.498Z,48.98
2023-05-18T16:02:42.189Z,50.06
2023-05-18T16:05:08.993Z,49.49
2023-05-18T16:07:35.710Z,50.34
2023-05-18T16:10:02.323Z,48.31
2023-05-18T16:12:28.959Z,49.07
2023-05-18T16:14:55.792Z,49.60
2023-05-18T16:17:22.398Z,49.85
2023-05-18T16:19:48.977Z,48.38
2023-05-18T16:22:15.612Z,49.33
2023-05-18T16:24:42.303Z,48.37
2023-05-18T16:27:08.928Z,48.58
2023-05-18T16:29:35.552Z,48.45
2023-05-18T16:32:02.236Z,51.31
2023-05-18T16:34:28.921Z,50.62
2023-05-18T16:36:56.281Z,50.16
2023-05-18T16:39:23.695Z,50.58
2023-05-18T16:41:51.524Z,50.36
2023-05-18T16:44:18.164Z,50.59
2023-05-18T16:46:44.954Z,51.24
2023-05-18T16:49:11.598Z,51.81
2023-05-18T16:51:40.278Z,50.55
2023-05-18T16:56:47.594Z,50.51
2023-05-18T16:59:14.206Z,51.46
2023-05-18T17:01:40.899Z,50.72
2023-05-18T17:04:07.674Z,50.93
2023-05-18T17:06:34.452Z,49.91
2023-05-18T17:09:01.159Z,50.56
2023-05-18T17:11:27.974Z,50.31
2023-05-18T17:13:54.752Z,50.52
2023-05-18T17:16:22.231Z,51.09
2023-05-18T17:18:49.197Z,50.89
2023-05-18T17:21:16.633Z,50.33
2023-05-18T17:23:43.307Z,50.48
2023-05-18T17:26:10.337Z,50.46
2023-05-18T17:28:37.012Z,50.52
2023-05-18T17:31:03.924Z,51.11
2023-05-18T17:33:30.880Z,50.10
2023-05-18T17:35:57.556Z,49.79
2023-05-18T17:38:24.137Z,50.93
2023-05-18T17:40:51.690Z,50.09
2023-05-18T17:43:18.333Z,51.07
2023-05-18T17:45:46.226Z,50.74
2023-05-18T17:48:13.733Z,50.74
2023-05-18T17:50:40.535Z,51.73
2023-05-18T17:53:07.997Z,52.13
2023-05-18T17:55:34.800Z,51.04
2023-05-18T18:00:57.918Z,51.05
2023-05-18T18:03:25.141Z,51.24
2023-05-18T18:05:52.357Z,52.25
2023-05-18T18:08:19.624Z,51.81
2023-05-18T18:10:46.892Z,51.51
2023-05-18T18:16:29.633Z,52.18
2023-05-18T18:18:56.865Z,52.78
2023-05-18T18:21:23.720Z,52.69
2023-05-18T18:23:50.572Z,52.00
2023-05-18T18:26:17.215Z,52.14
2023-05-18T18:28:43.910Z,52.64
2023-05-18T18:31:10.977Z,52.29
2023-05-18T18:33:37.812Z,52.38
2023-05-18T18:38:58.831Z,53.79
2023-05-18T18:41:25.928Z,51.89
2023-05-18T18:43:55.214Z,54.54
2023-05-18T18:46:22.221Z,56.05
2023-05-18T18:48:48.908Z,56.47
2023-05-18T18:51:39.330Z,56.70
2023-05-18T18:54:06.940Z,56.63
